createdAt,value
2023-03-15T00:00:28.919Z,98.34
2023-03-15T00:01:28.898Z,98.81
2023-03-15T00:02:28.941Z,99.17
2023-03-15T00:03:28.920Z,99.42
2023-03-15T00:04:28.834Z,98.77
2023-03-15T00:05:28.816Z,99.94
2023-03-15T00:06:28.828Z,97.14
2023-03-15T00:07:28.768Z,99.66
2023-03-15T00:08:28.735Z,97.56
2023-03-15T00:09:28.733Z,97.25
2023-03-15T00:10:28.700Z,97.40
2023-03-15T00:11:28.664Z,97.88
2023-03-15T00:12:28.668Z,98.92
2023-03-15T00:13:28.633Z,99.14
2023-03-15T00:14:28.619Z,98.14
2023-03-15T00:15:28.649Z,97.78
2023-03-15T00:16:28.607Z,97.75
2023-03-15T00:17:28.599Z,98.17
2023-03-15T00:18:28.548Z,97.38
2023-03-15T00:19:28.526Z,97.24
2023-03-15T00:20:28.509Z,97.27
2023-03-15T00:21:28.478Z,97.70
2023-03-15T00:22:28.471Z,97.00
2023-03-15T00:23:28.434Z,99.09
2023-03-15T00:24:28.410Z,97.93
2023-03-15T00:25:28.378Z,97.89
2023-03-15T00:26:28.359Z,98.43
2023-03-15T00:27:28.351Z,97.97
2023-03-15T00:28:28.316Z,98.49
2023-03-15T00:29:28.281Z,96.39
2023-03-15T00:30:28.258Z,97.12
2023-03-15T00:31:28.250Z,97.47
2023-03-15T00:32:28.276Z,97.04
2023-03-15T00:33:28.186Z,97.18
2023-03-15T00:34:28.162Z,97.49
2023-03-15T00:35:28.123Z,97.91
2023-03-15T00:36:28.096Z,98.45
2023-03-15T00:37:28.060Z,97.61
2023-03-15T00:38:28.059Z,96.43
2023-03-15T00:39:28.002Z,95.42
2023-03-15T00:40:27.978Z,98.02
2023-03-15T00:41:27.950Z,97.30
2023-03-15T00:42:27.919Z,97.32
2023-03-15T00:43:27.893Z,97.54
2023-03-15T00:44:28.057Z,96.91
2023-03-15T00:45:27.846Z,97.96
2023-03-15T00:46:27.904Z,97.39
2023-03-15T00:47:27.796Z,97.75
2023-03-15T00:48:27.767Z,97.83
2023-03-15T00:49:27.762Z,98.00
2023-03-15T00:50:27.719Z,97.36
2023-03-15T00:51:27.699Z,97.21
2023-03-15T00:52:27.676Z,96.30
2023-03-15T00:53:27.633Z,96.99
2023-03-15T00:54:27.609Z,97.72
2023-03-15T00:55:27.571Z,96.48
2023-03-15T00:56:27.544Z,96.52
2023-03-15T00:57:27.535Z,97.68
2023-03-15T00:58:27.631Z,97.32
2023-03-15T00:59:27.481Z,95.57
2023-03-15T01:00:27.436Z,97.11
2023-03-15T01:01:27.458Z,97.09
2023-03-15T01:02:27.418Z,96.64
2023-03-15T01:03:27.366Z,95.49
2023-03-15T01:04:27.355Z,96.13
2023-03-15T01:05:27.317Z,96.28
2023-03-15T01:06:27.290Z,96.36
2023-03-15T01:07:27.271Z,96.46
2023-03-15T01:08:27.247Z,96.11
2023-03-15T01:09:27.226Z,97.01
2023-03-15T01:10:27.196Z,96.61
2023-03-15T01:11:27.174Z,95.39
2023-03-15T01:12:27.147Z,96.93
2023-03-15T01:13:27.128Z,94.61
2023-03-15T01:14:27.109Z,97.29
2023-03-15T01:15:27.088Z,95.95
2023-03-15T01:16:27.085Z,96.77
2023-03-15T01:17:27.038Z,96.00
2023-03-15T01:18:27.015Z,96.86
2023-03-15T01:19:26.987Z,96.32
2023-03-15T01:20:27.009Z,95.51
2023-03-15T01:21:26.928Z,96.35
2023-03-15T01:22:26.920Z,94.79
2023-03-15T01:23:26.878Z,95.30
2023-03-15T01:24:26.858Z,94.91
2023-03-15T01:25:26.822Z,95.14
2023-03-15T01:26:26.784Z,96.86
2023-03-15T01:27:26.761Z,94.55
2023-03-15T01:28:26.729Z,95.31
2023-03-15T01:29:26.725Z,94.66
2023-03-15T01:30:26.691Z,96.02
2023-03-15T01:31:26.679Z,94.89
2023-03-15T01:32:26.655Z,92.53
2023-03-15T01:33:26.602Z,94.88
2023-03-15T01:34:26.573Z,93.90
2023-03-15T01:35:26.535Z,94.82
2023-03-15T01:36:26.503Z,94.94
2023-03-15T01:37:26.487Z,94.16
2023-03-15T01:38:26.468Z,95.32
2023-03-15T01:39:26.432Z,93.56
2023-03-15T01:40:26.422Z,95.72
2023-03-15T01:41:26.389Z,93.33
2023-03-15T01:42:26.384Z,94.77
2023-03-15T01:43:26.333Z,93.35
2023-03-15T01:44:26.342Z,94.41
2023-03-15T01:45:26.302Z,94.93
2023-03-15T01:46:26.352Z,94.01
2023-03-15T01:47:26.243Z,93.68
2023-03-15T01:48:26.227Z,94.64
2023-03-15T01:49:26.207Z,94.26
2023-03-15T01:50:26.201Z,93.61
2023-03-15T01:51:26.163Z,93.70
2023-03-15T01:52:26.129Z,94.61
2023-03-15T01:53:26.108Z,94.39
2023-03-15T01:54:26.105Z,95.06
2023-03-15T01:55:26.072Z,94.16
2023-03-15T01:56:26.037Z,93.92
2023-03-15T01:57:26.011Z,95.25
2023-03-15T01:58:25.989Z,95.26
2023-03-15T01:59:25.953Z,94.08
2023-03-15T02:00:25.937Z,94.29
2023-03-15T02:01:25.951Z,93.15
2023-03-15T02:02:25.980Z,92.60
2023-03-15T02:03:25.901Z,93.38
2023-03-15T02:04:25.855Z,93.40
2023-03-15T02:05:25.843Z,94.32
2023-03-15T02:06:25.818Z,93.71
2023-03-15T02:07:25.806Z,93.06
2023-03-15T02:08:25.762Z,93.67
2023-03-15T02:09:25.739Z,93.77
2023-03-15T02:10:25.716Z,92.36
2023-03-15T02:11:25.697Z,93.11
2023-03-15T02:12:25.675Z,92.53
2023-03-15T02:13:25.643Z,94.48
2023-03-15T02:14:25.634Z,94.01
2023-03-15T02:15:25.603Z,92.04
2023-03-15T02:16:25.620Z,94.34
2023-03-15T02:17:25.552Z,93.86
2023-03-15T02:18:25.563Z,93.97
2023-03-15T02:19:25.497Z,94.53
2023-03-15T02:20:25.482Z,92.33
2023-03-15T02:21:25.472Z,92.81
2023-03-15T02:22:25.450Z,93.30
2023-03-15T02:23:25.451Z,92.86
2023-03-15T02:24:25.425Z,93.57
2023-03-15T02:25:25.388Z,92.40
2023-03-15T02:26:25.388Z,92.23
2023-03-15T02:27:25.437Z,95.11
2023-03-15T02:28:25.333Z,92.26
2023-03-15T02:29:25.301Z,93.00
2023-03-15T02:30:25.273Z,92.67
2023-03-15T02:31:25.299Z,93.14
2023-03-15T02:32:25.268Z,92.70
2023-03-15T02:33:25.212Z,92.21
2023-03-15T02:34:25.198Z,91.23
2023-03-15T02:35:25.176Z,91.48
2023-03-15T02:36:25.216Z,91.61
2023-03-15T02:37:25.134Z,92.86
2023-03-15T02:38:25.105Z,91.30
2023-03-15T02:39:25.095Z,92.00
2023-03-15T02:40:25.062Z,90.90
2023-03-15T02:41:25.039Z,92.19
2023-03-15T02:42:25.034Z,92.07
2023-03-15T02:43:24.995Z,91.85
2023-03-15T02:44:24.968Z,90.69
2023-03-15T02:45:24.945Z,92.04
2023-03-15T02:46:24.993Z,92.25
2023-03-15T02:47:24.894Z,91.90
2023-03-15T02:48:24.866Z,91.85
2023-03-15T02:49:24.861Z,91.70
2023-03-15T02:50:24.819Z,91.64
2023-03-15T02:51:24.825Z,91.80
2023-03-15T02:52:24.802Z,91.29
2023-03-15T02:53:24.768Z,91.63
2023-03-15T02:54:24.736Z,91.50
2023-03-15T02:55:24.705Z,92.70
2023-03-15T02:56:24.696Z,90.25
2023-03-15T02:57:24.659Z,91.47
2023-03-15T02:58:24.631Z,91.30
2023-03-15T02:59:24.594Z,90.82
2023-03-15T03:00:24.571Z,90.61
2023-03-15T03:01:24.742Z,89.85
2023-03-15T03:02:24.596Z,91.02
2023-03-15T03:03:24.503Z,90.92
2023-03-15T03:04:24.470Z,90.99
2023-03-15T03:05:24.447Z,90.09
2023-03-15T03:06:24.439Z,91.44
2023-03-15T03:07:24.409Z,89.29
2023-03-15T03:08:24.381Z,89.12
2023-03-15T03:09:24.354Z,91.00
2023-03-15T03:10:24.347Z,90.59
2023-03-15T03:11:24.311Z,90.10
2023-03-15T03:12:24.312Z,90.15
2023-03-15T03:13:24.259Z,89.46
2023-03-15T03:14:24.244Z,90.02
2023-03-15T03:15:24.233Z,90.20
2023-03-15T03:16:24.255Z,89.33
2023-03-15T03:17:24.181Z,89.12
2023-03-15T03:18:24.165Z,89.12
2023-03-15T03:19:24.138Z,90.21
2023-03-15T03:20:24.115Z,88.83
2023-03-15T03:21:24.089Z,89.21
2023-03-15T03:22:24.081Z,88.47
2023-03-15T03:23:24.075Z,88.27
2023-03-15T03:24:24.019Z,88.02
2023-03-15T03:25:23.996Z,88.47
2023-03-15T03:26:23.974Z,87.48
2023-03-15T03:27:23.945Z,88.92
2023-03-15T03:28:23.934Z,88.57
2023-03-15T03:29:23.887Z,88.10
2023-03-15T03:30:23.864Z,86.80
2023-03-15T03:31:23.834Z,86.88
2023-03-15T03:32:23.842Z,87.68
2023-03-15T03:33:23.794Z,87.34
2023-03-15T03:34:23.767Z,87.41
2023-03-15T03:35:23.735Z,87.57
2023-03-15T03:36:23.732Z,87.71
2023-03-15T03:37:23.693Z,87.38
2023-03-15T03:38:23.661Z,86.59
2023-03-15T03:39:23.623Z,86.21
2023-03-15T03:40:23.599Z,86.26
2023-03-15T03:41:23.582Z,86.44
2023-03-15T03:42:23.541Z,85.89
2023-03-15T03:43:23.533Z,85.94
2023-03-15T03:44:23.513Z,86.73
2023-03-15T03:45:23.469Z,85.79
2023-03-15T03:46:23.478Z,82.19
2023-03-15T03:47:23.434Z,79.69
2023-03-15T03:48:23.408Z,73.29
2023-03-15T03:49:23.372Z,71.62
2023-03-15T03:50:23.397Z,69.22
2023-03-15T03:51:23.368Z,73.40
2023-03-15T03:52:23.317Z,74.66
2023-03-15T03:53:23.287Z,65.48
2023-03-15T03:54:23.242Z,65.20
2023-03-15T03:55:23.212Z,59.65
2023-03-15T03:56:23.192Z,59.06
2023-03-15T03:57:23.181Z,65.50
2023-03-15T03:58:23.142Z,65.60
2023-03-15T03:59:23.106Z,57.99
2023-03-15T04:00:23.134Z,54.09
2023-03-15T04:01:23.077Z,54.75
2023-03-15T04:02:23.083Z,59.00
2023-03-15T04:03:23.005Z,55.75
2023-03-15T04:04:22.995Z,55.54
2023-03-15T04:05:22.955Z,52.01
2023-03-15T04:06:22.929Z,43.59
2023-03-15T04:07:22.920Z,49.72
2023-03-15T04:08:22.888Z,51.91
2023-03-15T04:09:22.847Z,52.47
2023-03-15T04:10:22.823Z,48.61
2023-03-15T04:11:22.802Z,43.40
2023-03-15T04:12:22.901Z,44.56
2023-03-15T04:13:22.761Z,46.97
2023-03-15T04:14:22.714Z,42.13
2023-03-15T04:15:22.703Z,46.70
2023-03-15T04:16:22.721Z,40.38
2023-03-15T04:17:22.644Z,36.07
2023-03-15T04:18:22.643Z,40.86
2023-03-15T04:19:22.606Z,42.93
2023-03-15T04:20:22.567Z,44.68
2023-03-15T04:21:22.545Z,41.30
2023-03-15T04:22:22.521Z,37.12
2023-03-15T04:23:22.506Z,39.48
2023-03-15T04:24:22.502Z,34.97
2023-03-15T04:25:22.461Z,33.48
2023-03-15T04:26:22.427Z,38.71
2023-03-15T04:27:22.404Z,35.55
2023-03-15T04:28:22.380Z,26.09
2023-03-15T04:29:22.376Z,29.84
2023-03-15T04:30:22.328Z,34.09
2023-03-15T04:31:22.360Z,37.89
2023-03-15T04:32:22.316Z,37.99
2023-03-15T04:33:22.250Z,32.09
2023-03-15T04:34:22.220Z,27.01
2023-03-15T04:35:22.195Z,22.81
2023-03-15T04:36:22.175Z,26.90
2023-03-15T04:37:22.145Z,26.45
2023-03-15T04:38:22.123Z,34.34
2023-03-15T04:39:22.191Z,25.13
2023-03-15T04:40:22.092Z,25.98
2023-03-15T04:41:22.033Z,26.44
2023-03-15T04:42:22.002Z,31.16
2023-03-15T04:43:21.994Z,35.48
2023-03-15T04:44:21.938Z,26.89
2023-03-15T04:45:21.931Z,25.00
2023-03-15T04:46:23.927Z,25.00
2023-03-15T04:47:21.886Z,29.70
2023-03-15T04:48:21.841Z,29.98
2023-03-15T04:49:21.797Z,32.01
2023-03-15T04:50:21.765Z,25.82
2023-03-15T04:51:21.736Z,27.66
2023-03-15T04:52:21.708Z,27.61
2023-03-15T04:53:21.689Z,30.95
2023-03-15T05:26:20.879Z,38.09
2023-03-15T05:27:20.840Z,38.18
2023-03-15T05:28:20.810Z,31.86
2023-03-15T05:29:20.776Z,32.31
2023-03-15T05:30:20.761Z,29.55
2023-03-15T05:31:20.787Z,35.43
2023-03-15T05:32:20.709Z,36.01
2023-03-15T05:33:20.681Z,37.69
2023-03-15T05:34:20.656Z,30.25
2023-03-15T05:35:20.677Z,29.30
2023-03-15T05:36:20.633Z,31.34
2023-03-15T05:37:20.596Z,35.44
2023-03-15T05:38:20.577Z,37.23
2023-03-15T05:39:20.566Z,31.98
2023-03-15T05:40:20.531Z,30.88
2023-03-15T05:41:20.502Z,33.59
2023-03-15T05:42:20.474Z,33.38
2023-03-15T05:43:20.442Z,34.69
2023-03-15T05:44:20.429Z,36.03
2023-03-15T05:45:20.400Z,28.62
2023-03-15T05:46:20.413Z,29.18
2023-03-15T05:47:20.357Z,31.70
2023-03-15T05:48:20.368Z,34.31
2023-03-15T05:49:20.313Z,38.24
2023-03-15T05:50:20.272Z,32.26
2023-03-15T05:51:20.270Z,30.59
2023-03-15T05:52:20.233Z,32.16
2023-03-15T05:53:20.211Z,32.20
2023-03-15T05:54:20.191Z,36.07
2023-03-15T05:55:20.158Z,35.85
2023-03-15T05:56:20.137Z,31.18
2023-03-15T05:57:20.110Z,31.28
2023-03-15T05:58:20.116Z,32.02
2023-03-15T05:59:20.108Z,35.92
2023-03-15T06:00:20.045Z,37.30
2023-03-15T06:01:20.020Z,33.65
2023-03-15T06:02:20.006Z,28.24
2023-03-15T06:03:20.055Z,28.42
2023-03-15T06:04:19.972Z,31.62
2023-03-15T06:05:19.927Z,37.32
2023-03-15T06:06:19.889Z,34.53
2023-03-15T06:07:19.880Z,28.49
2023-03-15T06:08:19.856Z,25.38
2023-03-15T06:09:19.937Z,29.60
2023-03-15T06:10:19.785Z,30.12
2023-03-15T06:11:19.759Z,35.68
2023-03-15T06:12:19.736Z,31.42
2023-03-15T06:13:19.744Z,27.84
2023-03-15T06:14:19.703Z,26.33
2023-03-15T06:15:19.666Z,30.84
2023-03-15T06:16:19.743Z,33.00
2023-03-15T06:17:19.634Z,32.77
2023-03-15T06:18:19.600Z,27.86
2023-03-15T06:19:19.974Z,28.73
2023-03-15T06:20:19.542Z,29.56
2023-03-15T06:21:19.531Z,30.92
2023-03-15T06:22:19.507Z,34.84
2023-03-15T06:23:19.474Z,30.43
2023-03-15T06:24:19.460Z,30.02
2023-03-15T06:25:19.447Z,27.97
2023-03-15T06:26:19.425Z,30.98
2023-03-15T06:27:19.384Z,34.61
2023-03-15T06:28:19.378Z,34.46
2023-03-15T06:29:19.353Z,30.11
2023-03-15T06:30:19.344Z,36.25
2023-03-15T06:31:19.360Z,37.95
2023-03-15T06:32:19.305Z,45.08
2023-03-15T06:33:19.252Z,49.86
2023-03-15T06:34:19.218Z,60.67
2023-03-15T06:35:19.188Z,64.79
2023-03-15T06:36:19.197Z,66.31
2023-03-15T06:37:28.862Z,73.16
2023-03-15T06:38:20.119Z,73.45
2023-03-15T06:39:19.086Z,74.21
2023-03-15T06:40:19.047Z,77.32
2023-03-15T06:41:19.045Z,80.98
2023-03-15T06:42:19.014Z,88.70
2023-03-15T06:43:18.964Z,94.04
2023-03-15T06:44:18.928Z,97.37
2023-03-15T06:45:18.925Z,101.60
2023-03-15T06:46:18.954Z,103.98
2023-03-15T06:47:18.839Z,109.38
2023-03-15T06:48:18.811Z,114.35
2023-03-15T06:49:18.784Z,120.42
2023-03-15T06:50:18.756Z,123.68
2023-03-15T06:51:18.757Z,129.35
2023-03-15T06:52:18.713Z,160.67
2023-03-15T06:53:18.708Z,167.75
2023-03-15T06:54:18.657Z,164.18
2023-03-15T06:55:18.624Z,164.07
2023-03-15T06:56:18.556Z,164.71
2023-03-15T06:57:18.537Z,165.97
2023-03-15T06:58:18.512Z,169.31
2023-03-15T06:59:18.466Z,172.02
2023-03-15T07:00:18.443Z,174.30
2023-03-15T07:01:18.437Z,178.45
2023-03-15T07:02:18.423Z,180.48
2023-03-15T07:03:18.348Z,179.75
2023-03-15T07:04:18.329Z,184.88
2023-03-15T07:05:18.306Z,186.02
2023-03-15T07:06:18.295Z,186.23
2023-03-15T07:07:18.251Z,187.46
2023-03-15T07:08:18.192Z,189.77
2023-03-15T07:09:18.167Z,194.06
2023-03-15T07:10:18.122Z,198.24
2023-03-15T07:11:18.093Z,202.41
2023-03-15T07:12:18.063Z,204.41
2023-03-15T07:13:18.053Z,205.87
2023-03-15T07:14:17.996Z,209.29
2023-03-15T07:15:18.041Z,212.56
2023-03-15T07:16:18.004Z,215.41
2023-03-15T07:17:17.897Z,215.10
2023-03-15T07:18:17.865Z,216.75
2023-03-15T07:19:17.830Z,220.20
2023-03-15T07:20:17.817Z,223.86
2023-03-15T07:21:17.765Z,226.95
2023-03-15T07:22:17.702Z,228.44
2023-03-15T07:23:17.697Z,231.96
2023-03-15T07:24:17.675Z,234.89
2023-03-15T07:25:17.609Z,237.55
2023-03-15T07:26:17.574Z,239.61
2023-03-15T07:27:19.340Z,239.99
2023-03-15T07:28:17.505Z,239.74
2023-03-15T07:29:17.456Z,243.21
2023-03-15T07:30:17.430Z,244.85
2023-03-15T07:31:17.433Z,245.00
2023-03-15T07:32:17.427Z,245.47
2023-03-15T07:33:17.348Z,245.51
2023-03-15T07:34:17.293Z,245.91
2023-03-15T07:35:17.248Z,248.45
2023-03-15T07:36:17.212Z,249.96
2023-03-15T07:37:17.153Z,250.14
2023-03-15T07:38:17.117Z,250.91
2023-03-15T07:39:17.161Z,252.26
2023-03-15T07:40:18.056Z,254.49
2023-03-15T07:41:16.987Z,254.93
2023-03-15T07:42:16.947Z,249.40
2023-03-15T07:43:16.930Z,250.00
2023-03-15T07:44:16.945Z,249.94
2023-03-15T07:45:16.817Z,248.45
2023-03-15T07:46:16.829Z,246.13
2023-03-15T07:47:16.747Z,245.07
2023-03-15T07:48:16.725Z,243.76
2023-03-15T07:49:16.655Z,244.03
2023-03-15T07:50:17.326Z,244.85
2023-03-15T07:51:16.588Z,246.29
2023-03-15T07:52:16.584Z,248.76
2023-03-15T07:53:16.521Z,248.03
2023-03-15T07:54:16.466Z,249.57
2023-03-15T07:55:16.434Z,246.52
2023-03-15T07:56:16.414Z,246.68
2023-03-15T07:57:16.353Z,250.00
2023-03-15T07:58:18.470Z,250.01
2023-03-15T07:59:16.298Z,250.04
2023-03-15T08:00:16.256Z,250.36
2023-03-15T08:01:16.229Z,250.81
2023-03-15T08:02:16.181Z,253.32
2023-03-15T08:03:16.141Z,252.81
2023-03-15T08:04:16.114Z,247.67
2023-03-15T08:05:16.058Z,250.16
2023-03-15T08:06:15.981Z,246.28
2023-03-15T08:07:15.930Z,248.54
2023-03-15T08:08:15.903Z,246.23
2023-03-15T08:09:15.844Z,248.79
2023-03-15T08:10:15.808Z,249.72
2023-03-15T08:11:15.867Z,249.21
2023-03-15T08:12:15.737Z,249.40
2023-03-15T08:13:15.697Z,250.31
2023-03-15T08:14:15.662Z,248.63
2023-03-15T08:15:15.620Z,245.14
2023-03-15T08:16:15.639Z,247.34
2023-03-15T08:17:15.607Z,248.42
2023-03-15T08:18:15.521Z,246.31
2023-03-15T08:19:15.476Z,248.15
2023-03-15T08:20:15.435Z,248.56
2023-03-15T08:21:15.386Z,248.55
2023-03-15T08:22:15.367Z,249.18
2023-03-15T08:23:15.318Z,249.81
2023-03-15T08:24:15.293Z,249.27
2023-03-15T08:25:15.231Z,249.44
2023-03-15T08:26:15.171Z,250.31
2023-03-15T08:27:15.129Z,249.65
2023-03-15T08:28:15.104Z,250.53
2023-03-15T08:29:15.048Z,251.83
2023-03-15T08:30:15.025Z,253.99
2023-03-15T08:31:15.577Z,249.69
2023-03-15T08:32:15.020Z,249.75
2023-03-15T08:33:15.006Z,251.06
2023-03-15T08:34:14.928Z,252.95
2023-03-15T08:35:15.640Z,255.55
2023-03-15T08:36:14.974Z,257.73
2023-03-15T08:37:14.808Z,249.37
2023-03-15T08:38:14.774Z,248.42
2023-03-15T08:39:14.746Z,250.91
2023-03-15T08:40:14.795Z,248.87
2023-03-15T08:41:14.677Z,249.16
2023-03-15T08:42:14.689Z,249.65
2023-03-15T08:43:14.684Z,249.61
2023-03-15T08:44:14.542Z,249.01
2023-03-15T08:45:14.526Z,249.08
2023-03-15T08:46:14.489Z,248.09
2023-03-15T08:47:14.493Z,247.63
2023-03-15T08:48:14.444Z,248.41
2023-03-15T08:49:14.420Z,248.93
2023-03-15T08:50:14.341Z,249.67
2023-03-15T08:51:14.321Z,250.00
2023-03-15T08:52:15.000Z,249.75
2023-03-15T08:53:14.208Z,250.00
2023-03-15T08:54:14.176Z,250.09
2023-03-15T08:55:14.146Z,250.34
2023-03-15T08:56:14.123Z,250.77
2023-03-15T08:57:14.059Z,251.78
2023-03-15T08:58:14.032Z,252.01
2023-03-15T08:59:19.442Z,248.77
2023-03-15T09:00:14.944Z,248.82
2023-03-15T09:01:13.893Z,248.94
2023-03-15T09:02:13.957Z,249.19
2023-03-15T09:03:13.814Z,249.26
2023-03-15T09:04:13.824Z,249.96
2023-03-15T09:05:13.735Z,249.01
2023-03-15T09:06:13.704Z,249.53
2023-03-15T09:07:13.648Z,249.79
2023-03-15T09:08:13.613Z,250.62
2023-03-15T09:09:13.559Z,249.99
2023-03-15T09:10:13.525Z,248.17
2023-03-15T09:11:13.493Z,247.46
2023-03-15T09:12:13.526Z,247.54
2023-03-15T09:13:13.421Z,247.81
2023-03-15T09:14:13.373Z,248.06
2023-03-15T09:15:13.330Z,247.70
2023-03-15T09:16:13.293Z,255.08
2023-03-15T09:17:13.358Z,249.48
2023-03-15T09:18:13.226Z,246.33
2023-03-15T09:19:13.196Z,245.00
2023-03-15T09:20:13.137Z,243.67
2023-03-15T09:21:13.096Z,243.13
2023-03-15T09:22:16.648Z,243.56
2023-03-15T09:23:14.028Z,243.59
2023-03-15T09:24:12.999Z,243.73
2023-03-15T09:25:12.953Z,241.59
2023-03-15T09:26:12.960Z,240.81
2023-03-15T09:27:12.879Z,239.43
2023-03-15T09:28:12.851Z,238.82
2023-03-15T09:29:12.795Z,240.12
2023-03-15T09:30:12.784Z,240.78
2023-03-15T09:31:12.808Z,240.83
2023-03-15T09:32:12.689Z,240.80
2023-03-15T09:33:12.769Z,240.89
2023-03-15T09:34:12.755Z,239.31
2023-03-15T09:35:12.557Z,238.37
2023-03-15T09:36:12.523Z,234.40
2023-03-15T09:37:12.512Z,230.44
2023-03-15T09:38:12.424Z,230.01
2023-03-15T09:39:12.387Z,223.25
2023-03-15T09:40:12.353Z,219.30
2023-03-15T09:41:12.332Z,210.20
2023-03-15T09:42:12.289Z,203.69
2023-03-15T09:43:12.339Z,198.47
2023-03-15T09:44:12.191Z,192.46
2023-03-15T09:45:12.152Z,190.13
2023-03-15T09:46:12.240Z,184.98
2023-03-15T09:47:12.095Z,183.38
2023-03-15T09:48:12.033Z,175.86
2023-03-15T09:49:12.006Z,171.76
2023-03-15T09:50:12.430Z,167.51
2023-03-15T09:51:11.938Z,163.89
2023-03-15T09:52:11.883Z,158.81
2023-03-15T09:53:11.876Z,156.88
2023-03-15T09:54:11.873Z,152.95
2023-03-15T09:55:11.764Z,146.68
2023-03-15T09:56:11.736Z,146.57
2023-03-15T09:57:11.704Z,144.26
2023-03-15T12:36:04.900Z,110.20
2023-03-15T12:37:04.886Z,108.16
2023-03-15T12:38:04.764Z,110.32
2023-03-15T12:39:04.763Z,108.07
2023-03-15T12:40:04.819Z,108.79
2023-03-15T12:41:04.711Z,110.28
2023-03-15T12:42:04.778Z,110.51
2023-03-15T12:43:04.477Z,110.93
2023-03-15T12:44:04.620Z,111.65
2023-03-15T12:45:04.404Z,112.21
2023-03-15T12:46:04.412Z,112.63
2023-03-15T12:47:04.342Z,113.49
2023-03-15T12:48:04.247Z,112.22
2023-03-15T12:49:04.216Z,112.08
2023-03-15T12:50:04.206Z,110.96
2023-03-15T12:51:04.110Z,110.54
2023-03-15T12:52:04.095Z,110.65
2023-03-15T12:53:04.115Z,110.32
2023-03-15T12:54:04.036Z,109.09
2023-03-15T12:55:03.935Z,108.74
2023-03-15T12:56:08.831Z,109.08
2023-03-15T12:57:05.006Z,109.14
2023-03-15T12:58:03.845Z,109.40
2023-03-15T12:59:03.802Z,107.87
2023-03-15T13:00:03.739Z,109.48
2023-03-15T13:01:03.718Z,107.94
2023-03-15T13:02:03.647Z,109.78
2023-03-15T13:03:03.701Z,106.72
2023-03-15T13:04:03.610Z,106.17
2023-03-15T13:05:03.534Z,106.73
2023-03-15T13:06:04.438Z,104.82
2023-03-15T13:07:03.573Z,105.14
2023-03-15T13:08:03.589Z,105.24
2023-03-15T13:09:03.400Z,105.05
2023-03-15T13:10:03.318Z,103.57
2023-03-15T13:11:03.283Z,103.09
2023-03-15T13:12:03.256Z,100.64
2023-03-15T13:13:03.333Z,100.97
2023-03-15T13:14:03.195Z,99.29
2023-03-15T13:15:03.119Z,101.45
2023-03-15T13:16:03.112Z,100.17
2023-03-15T13:17:04.774Z,100.11
2023-03-15T13:18:03.189Z,100.13
2023-03-15T13:19:02.951Z,99.35
2023-03-15T13:20:02.918Z,96.81
2023-03-15T13:21:02.897Z,96.76
2023-03-15T13:22:02.850Z,95.57
2023-03-15T13:23:02.808Z,96.59
2023-03-15T13:24:02.871Z,97.82
2023-03-15T13:25:02.782Z,97.58
2023-03-15T13:26:02.696Z,96.92
2023-03-15T13:27:02.689Z,96.79
2023-03-15T13:28:02.904Z,95.22
2023-03-15T13:29:02.568Z,96.61
2023-03-15T13:30:02.529Z,95.78
2023-03-15T13:31:02.493Z,94.64
2023-03-15T13:32:02.608Z,94.79
2023-03-15T13:33:02.445Z,93.70
2023-03-15T13:34:02.385Z,93.86
2023-03-15T13:35:02.330Z,94.11
2023-03-15T13:36:02.335Z,94.28
2023-03-15T13:37:02.284Z,93.84
2023-03-15T13:38:02.218Z,94.02
2023-03-15T13:39:02.169Z,93.90
2023-03-15T13:40:02.155Z,92.72
2023-03-15T13:41:02.083Z,93.54
2023-03-15T13:42:02.048Z,92.80
2023-03-15T13:43:02.106Z,92.70
2023-03-15T13:44:02.027Z,91.97
2023-03-15T13:45:01.942Z,91.94
2023-03-15T13:46:01.871Z,93.68
2023-03-15T13:47:01.842Z,92.09
2023-03-15T13:48:01.799Z,92.49
2023-03-15T13:49:01.779Z,91.76
2023-03-15T13:50:01.709Z,91.63
2023-03-15T17:23:53.798Z,51.14
2023-03-15T18:05:52.425Z,44.02
2023-03-15T18:08:52.332Z,43.55
2023-03-15T18:10:52.283Z,41.30
2023-03-15T18:11:52.260Z,43.96
2023-03-15T18:12:52.232Z,42.82
2023-03-15T18:13:52.210Z,40.81
2023-03-15T18:14:52.184Z,41.60
2023-03-15T18:15:52.158Z,41.78
2023-03-15T18:16:52.213Z,40.19
2023-03-15T18:17:52.129Z,41.24
2023-03-15T18:18:52.091Z,41.15
2023-03-15T18:19:52.074Z,37.81
2023-03-15T18:20:52.032Z,39.68
2023-03-15T18:21:52.028Z,38.06
2023-03-15T18:22:51.990Z,39.92
2023-03-15T18:23:51.949Z,41.01
2023-03-15T18:24:51.926Z,39.26
2023-03-15T18:25:51.892Z,38.89
2023-03-15T18:26:51.868Z,39.27
2023-03-15T18:27:51.863Z,39.60
2023-03-15T18:28:51.829Z,38.37
2023-03-15T18:29:51.794Z,38.15
2023-03-15T18:30:51.768Z,35.52
2023-03-15T18:31:51.764Z,34.85
2023-03-15T18:32:51.773Z,35.65
2023-03-15T18:34:51.704Z,35.48
2023-03-15T19:20:50.403Z,32.49
2023-03-15T20:14:49.074Z,31.23
2023-03-15T20:16:49.021Z,25.81
2023-03-15T20:22:48.873Z,26.91
2023-03-15T20:23:48.854Z,28.36
2023-03-15T21:25:47.395Z,34.91
2023-03-15T22:15:46.124Z,33.37
2023-03-15T22:22:45.944Z,29.62
2023-03-15T22:23:45.978Z,30.39
2023-03-15T22:24:45.869Z,33.01
2023-03-15T22:25:45.839Z,35.58
2023-03-15T22:26:45.803Z,37.08
2023-03-15T22:27:45.802Z,32.00
2023-03-15T22:28:45.745Z,31.50
2023-03-15T22:29:45.712Z,32.71
2023-03-15T22:30:45.732Z,36.18
2023-03-15T22:31:45.675Z,37.41
2023-03-15T22:32:45.722Z,34.75
2023-03-15T22:33:45.644Z,32.92
2023-03-15T22:34:45.610Z,31.37
2023-03-15T22:35:45.628Z,34.36
2023-03-15T22:36:45.588Z,37.32
2023-03-15T22:37:45.547Z,37.44
2023-03-15T22:38:45.514Z,34.75
2023-03-15T22:39:45.484Z,33.00
2023-03-15T22:40:45.454Z,33.37
2023-03-15T22:41:45.426Z,37.26
2023-03-15T22:42:45.426Z,39.24
2023-03-15T22:43:45.393Z,36.37
2023-03-15T22:44:45.369Z,33.22
2023-03-15T22:45:45.341Z,32.91
2023-03-15T22:46:45.398Z,35.93
2023-03-15T22:47:45.298Z,37.92
2023-03-15T22:48:45.363Z,39.81
2023-03-15T22:49:45.239Z,35.97
2023-03-15T22:50:45.235Z,34.09
2023-03-15T22:51:45.205Z,34.75
2023-03-15T22:52:45.175Z,36.62
2023-03-15T22:53:45.171Z,40.16
2023-03-15T22:54:45.171Z,37.55
2023-03-15T22:55:45.096Z,35.32
2023-03-15T22:56:45.069Z,32.36
2023-03-15T22:57:45.046Z,33.47
2023-03-15T22:58:45.085Z,38.69
2023-03-15T22:59:45.005Z,43.05
2023-03-15T23:00:45.043Z,35.58
2023-03-15T23:01:45.019Z,35.34
2023-03-15T23:02:44.970Z,35.45
2023-03-15T23:03:44.912Z,35.87
2023-03-15T23:04:44.971Z,37.76
2023-03-15T23:05:44.861Z,38.01
2023-03-15T23:06:44.832Z,35.29
2023-03-15T23:07:44.800Z,34.94
2023-03-15T23:08:44.780Z,38.08
2023-03-15T23:09:44.792Z,39.30
2023-03-15T23:10:44.730Z,41.07
2023-03-15T23:11:44.734Z,38.22
2023-03-15T23:12:44.704Z,33.83
2023-03-15T23:13:44.668Z,35.93
2023-03-15T23:14:44.639Z,37.12
2023-03-15T23:15:44.621Z,39.77
2023-03-15T23:16:44.570Z,39.84
2023-03-15T23:17:44.536Z,36.11
2023-03-15T23:18:44.531Z,36.50
2023-03-15T23:19:44.536Z,37.08
2023-03-15T23:20:44.468Z,36.35
2023-03-15T23:21:44.441Z,41.66
2023-03-15T23:22:44.433Z,41.59
2023-03-15T23:23:44.404Z,35.99
2023-03-15T23:24:44.380Z,36.14
2023-03-15T23:25:44.345Z,37.59
2023-03-15T23:26:44.331Z,40.17
2023-03-15T23:27:44.300Z,41.63
2023-03-15T23:28:44.294Z,38.06
2023-03-15T23:29:54.228Z,33.98
2023-03-15T23:31:44.366Z,34.92
2023-03-15T23:32:44.245Z,36.06
2023-03-15T23:33:44.158Z,37.97
2023-03-15T23:34:44.147Z,34.65
2023-03-15T23:35:44.148Z,36.72
2023-03-15T23:36:45.314Z,35.54
2023-03-15T23:37:44.064Z,38.90
2023-03-15T23:38:44.042Z,38.78
2023-03-15T23:39:44.014Z,38.50
2023-03-15T23:40:44.020Z,33.80
2023-03-15T23:41:43.948Z,36.43
2023-03-15T23:42:43.936Z,36.65
2023-03-15T23:43:43.902Z,39.87
2023-03-15T23:44:43.877Z,37.76
2023-03-15T23:45:43.844Z,35.95
2023-03-15T23:46:43.842Z,35.01
2023-03-15T23:47:43.818Z,35.44
2023-03-15T23:48:43.772Z,35.94
2023-03-15T23:49:43.754Z,37.16
2023-03-15T23:50:43.708Z,38.02
2023-03-15T23:51:43.685Z,35.47
2023-03-15T23:52:43.664Z,33.31
2023-03-15T23:53:43.655Z,31.43